sensor_id;sensor_type;location;lat;lon;timestamp;P1;durP1;ratioP1;P2;durP2;ratioP2
60225;SDS011;46090;48.436;11.410;2023-08-06T00:01:09;4.28;;;1.60;;
60225;SDS011;46090;48.436;11.410;2023-08-06T00:03:36;4.20;;;1.60;;
60225;SDS011;46090;48.436;11.410;2023-08-06T00:06:06;5.82;;;1.77;;
60225;SDS011;46090;48.436;11.410;2023-08-06T00:08:33;5.35;;;1.95;;
60225;SDS011;46090;48.436;11.410;2023-08-06T00:10:59;8.65;;;2.47;;
60225;SDS011;46090;48.436;11.410;2023-08-06T00:13:27;4.63;;;2.08;;
60225;SDS011;46090;48.436;11.410;2023-08-06T00:15:54;5.57;;;2.17;;
60225;SDS011;46090;48.436;11.410;2023-08-06T00:18:20;5.22;;;1.80;;
60225;SDS011;46090;48.436;11.410;2023-08-06T00:20:47;4.50;;;2.08;;
60225;SDS011;46090;48.436;11.410;2023-08-06T00:23:14;5.28;;;2.03;;
60225;SDS011;46090;48.436;11.410;2023-08-06T00:25:41;4.93;;;2.22;;
60225;SDS011;46090;48.436;11.410;2023-08-06T00:28:07;4.38;;;1.90;;
60225;SDS011;46090;48.436;11.410;2023-08-06T00:30:34;4.30;;;1.90;;
60225;SDS011;46090;48.436;11.410;2023-08-06T00:33:01;4.22;;;1.92;;
60225;SDS011;46090;48.436;11.410;2023-08-06T00:35:28;4.88;;;2.03;;
60225;SDS011;46090;48.436;11.410;2023-08-06T00:37:56;5.70;;;2.38;;
60225;SDS011;46090;48.436;11.410;2023-08-06T00:40:22;5.13;;;2.22;;
60225;SDS011;46090;48.436;11.410;2023-08-06T00:42:49;5.57;;;2.50;;
60225;SDS011;46090;48.436;11.410;2023-08-06T00:45:16;5.63;;;2.20;;
60225;SDS011;46090;48.436;11.410;2023-08-06T00:47:43;4.72;;;2.17;;
60225;SDS011;46090;48.436;11.410;2023-08-06T00:50:10;4.97;;;2.33;;
60225;SDS011;46090;48.436;11.410;2023-08-06T00:52:37;6.05;;;2.40;;
60225;SDS011;46090;48.436;11.410;2023-08-06T00:55:04;5.40;;;2.20;;
60225;SDS011;46090;48.436;11.410;2023-08-06T00:57:32;5.15;;;2.35;;
60225;SDS011;46090;48.436;11.410;2023-08-06T00:59:58;6.63;;;2.30;;
60225;SDS011;46090;48.436;11.410;2023-08-06T01:02:25;7.25;;;2.50;;
60225;SDS011;46090;48.436;11.410;2023-08-06T01:04:52;6.85;;;2.78;;
60225;SDS011;46090;48.436;11.410;2023-08-06T01:07:21;6.15;;;2.97;;
60225;SDS011;46090;48.436;11.410;2023-08-06T01:10:00;7.03;;;3.30;;
60225;SDS011;46090;48.436;11.410;2023-08-06T01:15:33;6.10;;;3.17;;
60225;SDS011;46090;48.436;11.410;2023-08-06T01:18:03;5.95;;;2.60;;
60225;SDS011;46090;48.436;11.410;2023-08-06T01:20:30;7.20;;;3.03;;
60225;SDS011;46090;48.436;11.410;2023-08-06T01:22:57;6.88;;;2.83;;
60225;SDS011;46090;48.436;11.410;2023-08-06T01:25:26;5.97;;;2.70;;
60225;SDS011;46090;48.436;11.410;2023-08-06T01:27:58;7.20;;;3.13;;
60225;SDS011;46090;48.436;11.410;2023-08-06T01:30:31;6.85;;;3.50;;
60225;SDS011;46090;48.436;11.410;2023-08-06T01:33:04;6.00;;;3.28;;
60225;SDS011;46090;48.436;11.410;2023-08-06T01:35:32;7.18;;;3.70;;
60225;SDS011;46090;48.436;11.410;2023-08-06T01:38:00;9.43;;;3.63;;
60225;SDS011;46090;48.436;11.410;2023-08-06T01:40:29;6.90;;;3.50;;
60225;SDS011;46090;48.436;11.410;2023-08-06T01:42:56;7.35;;;4.05;;
60225;SDS011;46090;48.436;11.410;2023-08-06T01:45:23;10.10;;;3.80;;
60225;SDS011;46090;48.436;11.410;2023-08-06T01:47:50;9.77;;;4.32;;
60225;SDS011;46090;48.436;11.410;2023-08-06T01:50:16;8.82;;;3.85;;
60225;SDS011;46090;48.436;11.410;2023-08-06T01:52:44;7.53;;;3.97;;
60225;SDS011;46090;48.436;11.410;2023-08-06T01:55:10;8.85;;;4.20;;
60225;SDS011;46090;48.436;11.410;2023-08-06T01:57:37;8.40;;;4.22;;
60225;SDS011;46090;48.436;11.410;2023-08-06T02:00:04;8.73;;;4.10;;
60225;SDS011;46090;48.436;11.410;2023-08-06T02:02:38;8.65;;;3.92;;
60225;SDS011;46090;48.436;11.410;2023-08-06T02:05:05;7.00;;;4.00;;
60225;SDS011;46090;48.436;11.410;2023-08-06T02:07:32;8.38;;;4.15;;
60225;SDS011;46090;48.436;11.410;2023-08-06T02:09:59;7.22;;;3.72;;
60225;SDS011;46090;48.436;11.410;2023-08-06T02:12:25;6.70;;;3.28;;
60225;SDS011;46090;48.436;11.410;2023-08-06T02:14:52;6.80;;;2.40;;
60225;SDS011;46090;48.436;11.410;2023-08-06T02:17:19;6.85;;;2.85;;
60225;SDS011;46090;48.436;11.410;2023-08-06T02:19:46;11.55;;;3.10;;
60225;SDS011;46090;48.436;11.410;2023-08-06T02:22:12;6.28;;;2.60;;
60225;SDS011;46090;48.436;11.410;2023-08-06T02:24:40;5.07;;;2.40;;
60225;SDS011;46090;48.436;11.410;2023-08-06T02:27:09;3.75;;;1.92;;
60225;SDS011;46090;48.436;11.410;2023-08-06T02:29:36;5.78;;;2.28;;
60225;SDS011;46090;48.436;11.410;2023-08-06T02:32:03;5.10;;;2.30;;
60225;SDS011;46090;48.436;11.410;2023-08-06T02:34:32;5.55;;;2.28;;
60225;SDS011;46090;48.436;11.410;2023-08-06T02:36:58;5.85;;;2.65;;
60225;SDS011;46090;48.436;11.410;2023-08-06T02:39:25;4.90;;;2.17;;
60225;SDS011;46090;48.436;11.410;2023-08-06T02:41:52;5.30;;;2.20;;
60225;SDS011;46090;48.436;11.410;2023-08-06T02:44:19;4.97;;;2.53;;
60225;SDS011;46090;48.436;11.410;2023-08-06T02:46:45;5.20;;;2.50;;
60225;SDS011;46090;48.436;11.410;2023-08-06T02:49:12;5.60;;;2.47;;
60225;SDS011;46090;48.436;11.410;2023-08-06T02:51:39;4.57;;;2.10;;
60225;SDS011;46090;48.436;11.410;2023-08-06T02:54:06;5.25;;;2.15;;
60225;SDS011;46090;48.436;11.410;2023-08-06T02:56:34;4.72;;;2.47;;
60225;SDS011;46090;48.436;11.410;2023-08-06T02:59:21;5.72;;;1.90;;
60225;SDS011;46090;48.436;11.410;2023-08-06T03:02:07;5.95;;;2.05;;
60225;SDS011;46090;48.436;11.410;2023-08-06T03:04:57;7.18;;;2.38;;
60225;SDS011;46090;48.436;11.410;2023-08-06T03:07:28;5.97;;;2.42;;
60225;SDS011;46090;48.436;11.410;2023-08-06T03:10:01;5.53;;;2.30;;
60225;SDS011;46090;48.436;11.410;2023-08-06T03:12:29;7.57;;;2.42;;
60225;SDS011;46090;48.436;11.410;2023-08-06T03:14:58;5.40;;;2.40;;
60225;SDS011;46090;48.436;11.410;2023-08-06T03:17:25;4.53;;;2.13;;
60225;SDS011;46090;48.436;11.410;2023-08-06T03:19:52;6.28;;;2.28;;
60225;SDS011;46090;48.436;11.410;2023-08-06T03:22:19;5.32;;;2.13;;
60225;SDS011;46090;48.436;11.410;2023-08-06T03:24:49;5.63;;;2.30;;
60225;SDS011;46090;48.436;11.410;2023-08-06T03:27:19;5.20;;;2.38;;
60225;SDS011;46090;48.436;11.410;2023-08-06T03:29:50;6.57;;;2.40;;
60225;SDS011;46090;48.436;11.410;2023-08-06T03:32:20;5.32;;;2.53;;
60225;SDS011;46090;48.436;11.410;2023-08-06T03:34:47;4.57;;;2.40;;
60225;SDS011;46090;48.436;11.410;2023-08-06T03:37:15;4.13;;;1.85;;
60225;SDS011;46090;48.436;11.410;2023-08-06T03:39:42;4.65;;;2.20;;
60225;SDS011;46090;48.436;11.410;2023-08-06T03:42:09;5.63;;;1.80;;
60225;SDS011;46090;48.436;11.410;2023-08-06T03:44:35;4.88;;;1.92;;
60225;SDS011;46090;48.436;11.410;2023-08-06T03:47:02;4.90;;;2.45;;
60225;SDS011;46090;48.436;11.410;2023-08-06T03:49:29;6.05;;;2.50;;
60225;SDS011;46090;48.436;11.410;2023-08-06T03:51:55;4.55;;;2.10;;
60225;SDS011;46090;48.436;11.410;2023-08-06T03:54:22;4.22;;;1.98;;
60225;SDS011;46090;48.436;11.410;2023-08-06T03:56:49;4.70;;;2.08;;
60225;SDS011;46090;48.436;11.410;2023-08-06T03:59:15;5.03;;;2.30;;
60225;SDS011;46090;48.436;11.410;2023-08-06T04:01:44;4.72;;;2.03;;
60225;SDS011;46090;48.436;11.410;2023-08-06T04:04:12;4.18;;;1.77;;
60225;SDS011;46090;48.436;11.410;2023-08-06T04:06:38;4.28;;;1.95;;
60225;SDS011;46090;48.436;11.410;2023-08-06T04:09:05;4.43;;;1.50;;
60225;SDS011;46090;48.436;11.410;2023-08-06T04:11:32;4.88;;;1.90;;
60225;SDS011;46090;48.436;11.410;2023-08-06T04:13:59;4.25;;;2.00;;
60225;SDS011;46090;48.436;11.410;2023-08-06T04:16:26;8.27;;;2.75;;
60225;SDS011;46090;48.436;11.410;2023-08-06T04:18:53;3.47;;;1.67;;
60225;SDS011;46090;48.436;11.410;2023-08-06T04:21:21;5.60;;;2.35;;
60225;SDS011;46090;48.436;11.410;2023-08-06T04:23:48;4.13;;;1.85;;
60225;SDS011;46090;48.436;11.410;2023-08-06T04:26:17;5.10;;;2.22;;
60225;SDS011;46090;48.436;11.410;2023-08-06T04:28:44;4.85;;;2.00;;
60225;SDS011;46090;48.436;11.410;2023-08-06T04:31:10;3.90;;;1.80;;
60225;SDS011;46090;48.436;11.410;2023-08-06T04:33:40;5.70;;;2.00;;
60225;SDS011;46090;48.436;11.410;2023-08-06T04:36:09;4.15;;;1.75;;
60225;SDS011;46090;48.436;11.410;2023-08-06T04:38:36;6.25;;;2.17;;
60225;SDS011;46090;48.436;11.410;2023-08-06T04:41:03;5.45;;;2.00;;
60225;SDS011;46090;48.436;11.410;2023-08-06T04:43:30;5.10;;;1.60;;
60225;SDS011;46090;48.436;11.410;2023-08-06T04:45:57;4.63;;;1.77;;
60225;SDS011;46090;48.436;11.410;2023-08-06T04:48:24;2.83;;;1.30;;
60225;SDS011;46090;48.436;11.410;2023-08-06T04:50:50;3.92;;;1.67;;
60225;SDS011;46090;48.436;11.410;2023-08-06T04:53:17;4.28;;;1.70;;
60225;SDS011;46090;48.436;11.410;2023-08-06T04:55:44;3.25;;;1.50;;
60225;SDS011;46090;48.436;11.410;2023-08-06T04:58:12;4.15;;;1.65;;
60225;SDS011;46090;48.436;11.410;2023-08-06T05:00:39;4.18;;;1.50;;
60225;SDS011;46090;48.436;11.410;2023-08-06T05:03:06;6.25;;;1.50;;
60225;SDS011;46090;48.436;11.410;2023-08-06T05:05:33;5.03;;;1.60;;
60225;SDS011;46090;48.436;11.410;2023-08-06T05:08:00;4.63;;;1.58;;
60225;SDS011;46090;48.436;11.410;2023-08-06T05:10:26;3.22;;;1.40;;
60225;SDS011;46090;48.436;11.410;2023-08-06T05:12:53;4.25;;;1.77;;
60225;SDS011;46090;48.436;11.410;2023-08-06T05:15:20;5.50;;;2.00;;
60225;SDS011;46090;48.436;11.410;2023-08-06T05:17:47;5.03;;;1.20;;
60225;SDS011;46090;48.436;11.410;2023-08-06T05:20:13;3.72;;;1.40;;
60225;SDS011;46090;48.436;11.410;2023-08-06T05:22:40;4.72;;;1.55;;
60225;SDS011;46090;48.436;11.410;2023-08-06T05:25:07;3.88;;;1.30;;
60225;SDS011;46090;48.436;11.410;2023-08-06T05:27:34;3.85;;;1.52;;
60225;SDS011;46090;48.436;11.410;2023-08-06T05:30:01;3.95;;;1.50;;
60225;SDS011;46090;48.436;11.410;2023-08-06T05:32:27;7.68;;;1.45;;
60225;SDS011;46090;48.436;11.410;2023-08-06T05:34:54;4.30;;;1.45;;
60225;SDS011;46090;48.436;11.410;2023-08-06T05:37:21;4.60;;;1.50;;
60225;SDS011;46090;48.436;11.410;2023-08-06T05:39:47;5.95;;;1.33;;
60225;SDS011;46090;48.436;11.410;2023-08-06T05:42:14;3.78;;;1.58;;
60225;SDS011;46090;48.436;11.410;2023-08-06T05:44:41;3.90;;;1.48;;
60225;SDS011;46090;48.436;11.410;2023-08-06T05:47:07;2.97;;;1.20;;
60225;SDS011;46090;48.436;11.410;2023-08-06T05:49:34;3.13;;;1.17;;
60225;SDS011;46090;48.436;11.410;2023-08-06T05:52:01;4.15;;;1.25;;
60225;SDS011;46090;48.436;11.410;2023-08-06T05:54:29;2.90;;;1.02;;
60225;SDS011;46090;48.436;11.410;2023-08-06T05:56:55;2.53;;;0.95;;
60225;SDS011;46090;48.436;11.410;2023-08-06T05:59:22;3.40;;;1.30;;
60225;SDS011;46090;48.436;11.410;2023-08-06T06:01:49;2.67;;;1.15;;
60225;SDS011;46090;48.436;11.410;2023-08-06T06:04:16;2.97;;;0.98;;
60225;SDS011;46090;48.436;11.410;2023-08-06T06:06:42;3.53;;;1.05;;
60225;SDS011;46090;48.436;11.410;2023-08-06T06:09:09;4.95;;;1.23;;
60225;SDS011;46090;48.436;11.410;2023-08-06T06:11:35;4.10;;;1.20;;
60225;SDS011;46090;48.436;11.410;2023-08-06T06:14:02;5.15;;;0.93;;
60225;SDS011;46090;48.436;11.410;2023-08-06T06:16:29;4.07;;;1.30;;
60225;SDS011;46090;48.436;11.410;2023-08-06T06:18:55;3.67;;;1.00;;
60225;SDS011;46090;48.436;11.410;2023-08-06T06:21:23;2.60;;;0.90;;
60225;SDS011;46090;48.436;11.410;2023-08-06T06:23:50;3.58;;;0.93;;
60225;SDS011;46090;48.436;11.410;2023-08-06T06:26:20;2.72;;;1.13;;
60225;SDS011;46090;48.436;11.410;2023-08-06T06:28:47;5.30;;;1.38;;
60225;SDS011;46090;48.436;11.410;2023-08-06T06:31:13;4.53;;;1.45;;
60225;SDS011;46090;48.436;11.410;2023-08-06T06:33:40;3.03;;;0.80;;
60225;SDS011;46090;48.436;11.410;2023-08-06T06:36:07;3.83;;;1.10;;
60225;SDS011;46090;48.436;11.410;2023-08-06T06:38:34;3.17;;;0.88;;
60225;SDS011;46090;48.436;11.410;2023-08-06T06:41:01;2.97;;;0.93;;
60225;SDS011;46090;48.436;11.410;2023-08-06T06:43:30;3.75;;;1.08;;
60225;SDS011;46090;48.436;11.410;2023-08-06T06:45:57;3.22;;;0.95;;
60225;SDS011;46090;48.436;11.410;2023-08-06T06:48:27;3.78;;;0.90;;
60225;SDS011;46090;48.436;11.410;2023-08-06T06:50:54;2.95;;;1.00;;
60225;SDS011;46090;48.436;11.410;2023-08-06T06:53:21;3.03;;;0.90;;
60225;SDS011;46090;48.436;11.410;2023-08-06T06:55:55;2.55;;;0.95;;
60225;SDS011;46090;48.436;11.410;2023-08-06T06:58:22;4.05;;;1.15;;
60225;SDS011;46090;48.436;11.410;2023-08-06T07:00:48;5.20;;;0.85;;
60225;SDS011;46090;48.436;11.410;2023-08-06T07:03:15;4.80;;;1.50;;
60225;SDS011;46090;48.436;11.410;2023-08-06T07:05:42;3.33;;;0.70;;
60225;SDS011;46090;48.436;11.410;2023-08-06T07:08:10;2.90;;;0.80;;
60225;SDS011;46090;48.436;11.410;2023-08-06T07:10:37;3.03;;;0.80;;
60225;SDS011;46090;48.436;11.410;2023-08-06T07:13:04;3.08;;;0.75;;
60225;SDS011;46090;48.436;11.410;2023-08-06T07:15:30;3.92;;;1.00;;
60225;SDS011;46090;48.436;11.410;2023-08-06T07:17:57;2.40;;;0.55;;
60225;SDS011;46090;48.436;11.410;2023-08-06T07:20:24;3.28;;;0.73;;
60225;SDS011;46090;48.436;11.410;2023-08-06T07:22:50;1.95;;;0.68;;
60225;SDS011;46090;48.436;11.410;2023-08-06T07:25:17;2.63;;;0.60;;
60225;SDS011;46090;48.436;11.410;2023-08-06T07:27:44;3.40;;;0.40;;
60225;SDS011;46090;48.436;11.410;2023-08-06T07:30:11;2.42;;;0.63;;
60225;SDS011;46090;48.436;11.410;2023-08-06T07:32:38;1.63;;;0.50;;
60225;SDS011;46090;48.436;11.410;2023-08-06T07:35:05;1.98;;;0.43;;
60225;SDS011;46090;48.436;11.410;2023-08-06T07:37:34;1.80;;;0.50;;
60225;SDS011;46090;48.436;11.410;2023-08-06T07:40:00;2.67;;;0.85;;
60225;SDS011;46090;48.436;11.410;2023-08-06T07:42:28;1.67;;;0.30;;
60225;SDS011;46090;48.436;11.410;2023-08-06T07:44:58;1.83;;;0.40;;
60225;SDS011;46090;48.436;11.410;2023-08-06T07:47:25;1.42;;;0.20;;
60225;SDS011;46090;48.436;11.410;2023-08-06T07:49:52;1.50;;;0.22;;
60225;SDS011;46090;48.436;11.410;2023-08-06T07:52:19;1.10;;;0.20;;
60225;SDS011;46090;48.436;11.410;2023-08-06T07:54:45;1.80;;;0.20;;
60225;SDS011;46090;48.436;11.410;2023-08-06T07:57:12;2.05;;;0.20;;
60225;SDS011;46090;48.436;11.410;2023-08-06T07:59:40;4.20;;;0.63;;
60225;SDS011;46090;48.436;11.410;2023-08-06T08:02:06;1.45;;;0.30;;
60225;SDS011;46090;48.436;11.410;2023-08-06T08:04:33;1.17;;;0.30;;
60225;SDS011;46090;48.436;11.410;2023-08-06T08:07:00;2.50;;;0.30;;
60225;SDS011;46090;48.436;11.410;2023-08-06T08:09:26;0.73;;;0.20;;
60225;SDS011;46090;48.436;11.410;2023-08-06T08:11:53;2.95;;;0.32;;
60225;SDS011;46090;48.436;11.410;2023-08-06T08:14:22;1.88;;;0.30;;
60225;SDS011;46090;48.436;11.410;2023-08-06T08:16:49;1.75;;;0.35;;
60225;SDS011;46090;48.436;11.410;2023-08-06T08:19:16;1.52;;;0.40;;
60225;SDS011;46090;48.436;11.410;2023-08-06T08:21:43;1.73;;;0.40;;
60225;SDS011;46090;48.436;11.410;2023-08-06T08:24:09;1.63;;;0.43;;
60225;SDS011;46090;48.436;11.410;2023-08-06T08:26:36;1.45;;;0.40;;
60225;SDS011;46090;48.436;11.410;2023-08-06T08:29:03;2.15;;;0.20;;
60225;SDS011;46090;48.436;11.410;2023-08-06T08:31:29;1.27;;;0.40;;
60225;SDS011;46090;48.436;11.410;2023-08-06T08:33:56;1.45;;;0.40;;
60225;SDS011;46090;48.436;11.410;2023-08-06T08:36:25;1.52;;;0.20;;
60225;SDS011;46090;48.436;11.410;2023-08-06T08:38:52;3.25;;;0.32;;
60225;SDS011;46090;48.436;11.410;2023-08-06T08:41:20;2.55;;;0.30;;
60225;SDS011;46090;48.436;11.410;2023-08-06T08:43:47;2.17;;;0.50;;
60225;SDS011;46090;48.436;11.410;2023-08-06T08:46:15;1.17;;;0.20;;
60225;SDS011;46090;48.436;11.410;2023-08-06T08:48:44;3.20;;;0.30;;
60225;SDS011;46090;48.436;11.410;2023-08-06T08:51:11;0.80;;;0.20;;
60225;SDS011;46090;48.436;11.410;2023-08-06T08:53:39;2.10;;;0.63;;
60225;SDS011;46090;48.436;11.410;2023-08-06T08:56:06;1.63;;;0.50;;
60225;SDS011;46090;48.436;11.410;2023-08-06T08:58:33;1.85;;;0.25;;
60225;SDS011;46090;48.436;11.410;2023-08-06T09:01:00;0.80;;;0.20;;
60225;SDS011;46090;48.436;11.410;2023-08-06T09:03:27;0.50;;;0.17;;
60225;SDS011;46090;48.436;11.410;2023-08-06T09:05:53;1.30;;;0.20;;
60225;SDS011;46090;48.436;11.410;2023-08-06T09:08:23;0.88;;;0.22;;
60225;SDS011;46090;48.436;11.410;2023-08-06T09:10:52;1.58;;;0.40;;
60225;SDS011;46090;48.436;11.410;2023-08-06T09:13:19;0.80;;;0.17;;
60225;SDS011;46090;48.436;11.410;2023-08-06T09:15:47;3.72;;;0.10;;
60225;SDS011;46090;48.436;11.410;2023-08-06T09:18:24;1.67;;;0.20;;
60225;SDS011;46090;48.436;11.410;2023-08-06T09:20:52;0.93;;;0.20;;
60225;SDS011;46090;48.436;11.410;2023-08-06T09:23:19;1.15;;;0.10;;
60225;SDS011;46090;48.436;11.410;2023-08-06T09:25:46;0.77;;;0.20;;
60225;SDS011;46090;48.436;11.410;2023-08-06T09:28:13;3.35;;;0.30;;
60225;SDS011;46090;48.436;11.410;2023-08-06T09:30:40;1.00;;;0.30;;
60225;SDS011;46090;48.436;11.410;2023-08-06T09:33:07;4.90;;;0.20;;
60225;SDS011;46090;48.436;11.410;2023-08-06T09:35:36;1.08;;;0.20;;
60225;SDS011;46090;48.436;11.410;2023-08-06T09:38:07;1.25;;;0.22;;
60225;SDS011;46090;48.436;11.410;2023-08-06T09:40:37;0.57;;;0.10;;
60225;SDS011;46090;48.436;11.410;2023-08-06T09:43:05;1.65;;;0.10;;
60225;SDS011;46090;48.436;11.410;2023-08-06T09:45:33;1.58;;;0.20;;
60225;SDS011;46090;48.436;11.410;2023-08-06T09:48:03;0.82;;;0.20;;
60225;SDS011;46090;48.436;11.410;2023-08-06T09:50:35;1.92;;;0.20;;
60225;SDS011;46090;48.436;11.410;2023-08-06T09:53:06;1.38;;;0.20;;
60225;SDS011;46090;48.436;11.410;2023-08-06T09:55:36;2.03;;;0.47;;
60225;SDS011;46090;48.436;11.410;2023-08-06T09:58:03;0.30;;;0.10;;
60225;SDS011;46090;48.436;11.410;2023-08-06T10:00:31;1.42;;;0.20;;
60225;SDS011;46090;48.436;11.410;2023-08-06T10:03:05;1.08;;;0.15;;
60225;SDS011;46090;48.436;11.410;2023-08-06T10:05:33;0.93;;;0.03;;
60225;SDS011;46090;48.436;11.410;2023-08-06T10:08:00;1.75;;;0.03;;
60225;SDS011;46090;48.436;11.410;2023-08-06T10:10:28;0.98;;;0.10;;
60225;SDS011;46090;48.436;11.410;2023-08-06T10:12:56;0.75;;;0.10;;
60225;SDS011;46090;48.436;11.410;2023-08-06T10:15:25;0.20;;;0.10;;
60225;SDS011;46090;48.436;11.410;2023-08-06T10:17:52;0.90;;;0.20;;
60225;SDS011;46090;48.436;11.410;2023-08-06T10:20:22;1.38;;;0.00;;
60225;SDS011;46090;48.436;11.410;2023-08-06T10:23:05;0.75;;;0.20;;
60225;SDS011;46090;48.436;11.410;2023-08-06T10:25:34;0.00;;;0.00;;
60225;SDS011;46090;48.436;11.410;2023-08-06T10:28:07;1.63;;;0.10;;
60225;SDS011;46090;48.436;11.410;2023-08-06T10:30:47;0.55;;;0.13;;
60225;SDS011;46090;48.436;11.410;2023-08-06T10:33:14;0.15;;;0.05;;
60225;SDS011;46090;48.436;11.410;2023-08-06T10:38:22;2.25;;;0.00;;
60225;SDS011;46090;48.436;11.410;2023-08-06T10:43:26;0.85;;;0.00;;
60225;SDS011;46090;48.436;11.410;2023-08-06T10:45:55;0.52;;;0.00;;
60225;SDS011;46090;48.436;11.410;2023-08-06T10:48:36;0.47;;;0.00;;
60225;SDS011;46090;48.436;11.410;2023-08-06T10:51:14;1.02;;;0.10;;
60225;SDS011;46090;48.436;11.410;2023-08-06T10:53:44;1.13;;;0.00;;
60225;SDS011;46090;48.436;11.410;2023-08-06T10:56:15;0.38;;;0.00;;
60225;SDS011;46090;48.436;11.410;2023-08-06T10:58:46;1.55;;;0.10;;
60225;SDS011;46090;48.436;11.410;2023-08-06T11:01:13;0.82;;;0.00;;
60225;SDS011;46090;48.436;11.410;2023-08-06T11:03:41;0.20;;;0.00;;
60225;SDS011;46090;48.436;11.410;2023-08-06T11:06:09;0.57;;;0.00;;
60225;SDS011;46090;48.436;11.410;2023-08-06T11:08:37;0.10;;;0.00;;
60225;SDS011;46090;48.436;11.410;2023-08-06T11:11:12;0.45;;;0.03;;
60225;SDS011;46090;48.436;11.410;2023-08-06T11:16:07;0.60;;;0.00;;
60225;SDS011;46090;48.436;11.410;2023-08-06T11:18:34;1.50;;;0.00;;
60225;SDS011;46090;48.436;11.410;2023-08-06T11:21:01;0.68;;;0.00;;
60225;SDS011;46090;48.436;11.410;2023-08-06T11:23:28;0.00;;;0.00;;
60225;SDS011;46090;48.436;11.410;2023-08-06T11:25:55;0.35;;;0.00;;
60225;SDS011;46090;48.436;11.410;2023-08-06T11:28:23;0.10;;;0.00;;
60225;SDS011;46090;48.436;11.410;2023-08-06T11:30:50;0.50;;;0.00;;
60225;SDS011;46090;48.436;11.410;2023-08-06T11:33:21;0.52;;;0.00;;
60225;SDS011;46090;48.436;11.410;2023-08-06T11:35:49;0.40;;;0.10;;
60225;SDS011;46090;48.436;11.410;2023-08-06T11:38:15;2.17;;;0.10;;
60225;SDS011;46090;48.436;11.410;2023-08-06T11:40:44;1.08;;;0.00;;
60225;SDS011;46090;48.436;11.410;2023-08-06T11:43:12;0.20;;;0.00;;
60225;SDS011;46090;48.436;11.410;2023-08-06T11:45:39;0.47;;;0.00;;
60225;SDS011;46090;48.436;11.410;2023-08-06T11:48:07;0.45;;;0.00;;
60225;SDS011;46090;48.436;11.410;2023-08-06T11:50:38;0.45;;;0.00;;
60225;SDS011;46090;48.436;11.410;2023-08-06T11:53:07;0.00;;;0.00;;
60225;SDS011;46090;48.436;11.410;2023-08-06T11:55:35;0.98;;;0.38;;
60225;SDS011;46090;48.436;11.410;2023-08-06T11:58:05;0.20;;;0.00;;
60225;SDS011;46090;48.436;11.410;2023-08-06T12:00:32;0.15;;;0.00;;
60225;SDS011;46090;48.436;11.410;2023-08-06T12:02:59;0.73;;;0.00;;
60225;SDS011;46090;48.436;11.410;2023-08-06T12:05:29;0.20;;;0.00;;
60225;SDS011;46090;48.436;11.410;2023-08-06T12:07:57;0.20;;;0.00;;
60225;SDS011;46090;48.436;11.410;2023-08-06T12:10:25;0.10;;;0.00;;
60225;SDS011;46090;48.436;11.410;2023-08-06T12:12:53;0.28;;;0.00;;
60225;SDS011;46090;48.436;11.410;2023-08-06T12:15:20;0.30;;;0.00;;
60225;SDS011;46090;48.436;11.410;2023-08-06T12:17:47;0.00;;;0.00;;
60225;SDS011;46090;48.436;11.410;2023-08-06T12:20:15;0.17;;;0.00;;
60225;SDS011;46090;48.436;11.410;2023-08-06T12:22:42;0.60;;;0.00;;
60225;SDS011;46090;48.436;11.410;2023-08-06T12:25:09;0.15;;;0.00;;
60225;SDS011;46090;48.436;11.410;2023-08-06T12:27:38;0.00;;;0.00;;
60225;SDS011;46090;48.436;11.410;2023-08-06T12:30:06;0.25;;;0.00;;
60225;SDS011;46090;48.436;11.410;2023-08-06T12:32:33;0.40;;;0.00;;
60225;SDS011;46090;48.436;11.410;2023-08-06T12:35:00;0.55;;;0.00;;
60225;SDS011;46090;48.436;11.410;2023-08-06T12:37:28;0.82;;;0.00;;
60225;SDS011;46090;48.436;11.410;2023-08-06T12:39:55;1.08;;;0.00;;
60225;SDS011;46090;48.436;11.410;2023-08-06T12:42:22;0.35;;;0.00;;
60225;SDS011;46090;48.436;11.410;2023-08-06T12:44:48;0.20;;;0.13;;
60225;SDS011;46090;48.436;11.410;2023-08-06T12:47:16;0.77;;;0.00;;
60225;SDS011;46090;48.436;11.410;2023-08-06T12:49:43;1.08;;;0.20;;
60225;SDS011;46090;48.436;11.410;2023-08-06T12:52:10;0.30;;;0.00;;
60225;SDS011;46090;48.436;11.410;2023-08-06T12:54:39;0.25;;;0.00;;
60225;SDS011;46090;48.436;11.410;2023-08-06T12:57:05;0.00;;;0.00;;
60225;SDS011;46090;48.436;11.410;2023-08-06T12:59:33;0.35;;;0.00;;
60225;SDS011;46090;48.436;11.410;2023-08-06T13:02:00;0.10;;;0.00;;
60225;SDS011;46090;48.436;11.410;2023-08-06T13:04:27;0.60;;;0.00;;
60225;SDS011;46090;48.436;11.410;2023-08-06T13:06:54;0.52;;;0.10;;
60225;SDS011;46090;48.436;11.410;2023-08-06T13:09:21;0.00;;;0.00;;
60225;SDS011;46090;48.436;11.410;2023-08-06T13:11:47;0.50;;;0.00;;
60225;SDS011;46090;48.436;11.410;2023-08-06T13:14:16;0.38;;;0.00;;
60225;SDS011;46090;48.436;11.410;2023-08-06T13:16:43;2.65;;;0.00;;
60225;SDS011;46090;48.436;11.410;2023-08-06T13:19:11;3.50;;;0.00;;
60225;SDS011;46090;48.436;11.410;2023-08-06T13:24:12;0.30;;;0.00;;
60225;SDS011;46090;48.436;11.410;2023-08-06T13:26:39;2.20;;;0.00;;
60225;SDS011;46090;48.436;11.410;2023-08-06T13:29:05;0.30;;;0.00;;
60225;SDS011;46090;48.436;11.410;2023-08-06T13:31:33;0.10;;;0.00;;
60225;SDS011;46090;48.436;11.410;2023-08-06T13:34:00;1.00;;;0.00;;
60225;SDS011;46090;48.436;11.410;2023-08-06T13:36:26;0.38;;;0.10;;
60225;SDS011;46090;48.436;11.410;2023-08-06T13:38:54;0.45;;;0.00;;
60225;SDS011;46090;48.436;11.410;2023-08-06T13:41:20;0.38;;;0.00;;
60225;SDS011;46090;48.436;11.410;2023-08-06T13:43:47;0.00;;;0.00;;
60225;SDS011;46090;48.436;11.410;2023-08-06T13:46:14;0.30;;;0.00;;
60225;SDS011;46090;48.436;11.410;2023-08-06T13:48:46;0.00;;;0.00;;
60225;SDS011;46090;48.436;11.410;2023-08-06T13:51:14;0.00;;;0.00;;
60225;SDS011;46090;48.436;11.410;2023-08-06T13:53:40;0.17;;;0.00;;
60225;SDS011;46090;48.436;11.410;2023-08-06T13:56:08;0.00;;;0.00;;
60225;SDS011;46090;48.436;11.410;2023-08-06T13:58:39;0.00;;;0.00;;
60225;SDS011;46090;48.436;11.410;2023-08-06T14:01:06;0.50;;;0.00;;
60225;SDS011;46090;48.436;11.410;2023-08-06T14:03:33;1.35;;;0.00;;
60225;SDS011;46090;48.436;11.410;2023-08-06T14:06:00;0.60;;;0.00;;
60225;SDS011;46090;48.436;11.410;2023-08-06T14:08:27;1.35;;;0.00;;
60225;SDS011;46090;48.436;11.410;2023-08-06T14:10:54;0.60;;;0.03;;
60225;SDS011;46090;48.436;11.410;2023-08-06T14:13:21;0.10;;;0.00;;
60225;SDS011;46090;48.436;11.410;2023-08-06T14:15:48;0.73;;;0.15;;
60225;SDS011;46090;48.436;11.410;2023-08-06T14:18:15;0.10;;;0.00;;
60225;SDS011;46090;48.436;11.410;2023-08-06T14:20:43;0.90;;;0.10;;
60225;SDS011;46090;48.436;11.410;2023-08-06T14:23:10;0.52;;;0.00;;
60225;SDS011;46090;48.436;11.410;2023-08-06T14:25:37;1.65;;;0.30;;
60225;SDS011;46090;48.436;11.410;2023-08-06T14:28:05;3.50;;;0.25;;
60225;SDS011;46090;48.436;11.410;2023-08-06T14:30:33;4.18;;;0.30;;
60225;SDS011;46090;48.436;11.410;2023-08-06T14:33:01;3.10;;;0.10;;
60225;SDS011;46090;48.436;11.410;2023-08-06T14:35:48;0.82;;;0.00;;
60225;SDS011;46090;48.436;11.410;2023-08-06T14:38:14;0.40;;;0.00;;
60225;SDS011;46090;48.436;11.410;2023-08-06T14:40:42;0.40;;;0.05;;
60225;SDS011;46090;48.436;11.410;2023-08-06T14:43:10;0.68;;;0.00;;
60225;SDS011;46090;48.436;11.410;2023-08-06T14:45:40;0.85;;;0.10;;
60225;SDS011;46090;48.436;11.410;2023-08-06T14:48:07;3.95;;;0.10;;
60225;SDS011;46090;48.436;11.410;2023-08-06T14:50:33;2.15;;;0.10;;